createdAt,value
2019-03-22T00:01:42.823Z,70.90
2019-03-22T00:04:15.443Z,71.00
2019-03-22T00:06:46.000Z,72.20
2019-03-22T00:09:16.689Z,71.90
2019-03-22T00:11:47.234Z,72.00
2019-03-22T00:14:18.930Z,71.90
2019-03-22T00:16:49.494Z,71.40
2019-03-22T00:19:22.906Z,71.60
2019-03-22T00:21:53.639Z,72.40
2019-03-22T00:24:25.826Z,71.80
2019-03-22T00:26:58.312Z,71.40
2019-03-22T00:29:28.959Z,71.00
2019-03-22T00:32:02.130Z,71.80
2019-03-22T00:34:32.675Z,70.90
2019-03-22T00:37:05.790Z,71.10
2019-03-22T00:39:36.422Z,70.60
2019-03-22T00:42:09.776Z,72.00
2019-03-22T00:44:40.389Z,71.30
2019-03-22T00:47:12.829Z,70.70
2019-03-22T00:49:46.513Z,71.60
2019-03-22T00:52:20.595Z,71.80
2019-03-22T00:54:51.122Z,72.60
2019-03-22T00:57:28.426Z,72.30
2019-03-22T00:59:57.634Z,72.00
2019-03-22T01:02:29.581Z,72.60
2019-03-22T01:05:00.372Z,72.20
2019-03-22T01:07:31.699Z,72.40
2019-03-22T01:10:03.372Z,72.10
2019-03-22T01:12:34.024Z,72.90
2019-03-22T01:15:06.157Z,73.00
2019-03-22T01:17:36.700Z,72.70
2019-03-22T01:20:09.805Z,73.40
2019-03-22T01:22:40.405Z,72.90
2019-03-22T01:25:19.748Z,73.50
2019-03-22T01:27:50.354Z,73.90
2019-03-22T01:30:20.905Z,74.30
2019-03-22T01:32:53.013Z,74.60
2019-03-22T01:35:23.638Z,74.10
2019-03-22T01:37:57.070Z,73.60
2019-03-22T01:40:29.992Z,73.70
2019-03-22T01:43:00.516Z,73.30
2019-03-22T01:45:31.166Z,73.90
2019-03-22T01:48:04.293Z,73.30
2019-03-22T01:50:35.566Z,74.00
2019-03-22T01:53:06.079Z,74.30
2019-03-22T01:55:41.593Z,74.00
2019-03-22T01:58:12.216Z,72.90
2019-03-22T02:00:44.781Z,74.10
2019-03-22T02:03:16.686Z,73.90
2019-03-22T02:05:49.372Z,74.70
2019-03-22T02:08:23.062Z,74.80
2019-03-22T02:10:54.692Z,74.10
2019-03-22T02:13:26.347Z,74.00
2019-03-22T02:15:58.252Z,74.10
2019-03-22T02:18:30.094Z,73.80
2019-03-22T02:21:01.714Z,74.00
2019-03-22T02:23:34.056Z,73.90
2019-03-22T02:26:04.594Z,74.30
2019-03-22T02:28:36.320Z,74.00
2019-03-22T02:31:13.714Z,74.80
2019-03-22T02:33:42.350Z,75.50
2019-03-22T02:36:15.017Z,76.10
2019-03-22T02:38:47.284Z,75.40
2019-03-22T02:41:18.040Z,74.70
2019-03-22T02:43:48.748Z,74.60
2019-03-22T02:46:19.346Z,74.00
2019-03-22T02:48:50.115Z,74.40
2019-03-22T02:51:20.792Z,73.90
2019-03-22T02:53:51.387Z,74.70
2019-03-22T02:56:21.905Z,74.70
2019-03-22T02:58:52.454Z,74.80
2019-03-22T03:01:23.019Z,74.50
2019-03-22T03:03:57.887Z,74.50
2019-03-22T03:06:28.466Z,74.80
2019-03-22T03:09:00.907Z,75.90
2019-03-22T03:11:32.815Z,74.90
2019-03-22T03:14:09.589Z,75.00
2019-03-22T03:16:40.356Z,75.00
2019-03-22T03:19:15.355Z,74.80
2019-03-22T03:21:45.877Z,75.30
2019-03-22T03:24:19.964Z,75.10
2019-03-22T03:26:51.508Z,75.70
2019-03-22T03:29:26.021Z,75.50
2019-03-22T03:31:58.245Z,74.70
2019-03-22T03:34:28.866Z,74.90
2019-03-22T03:37:02.624Z,75.30
2019-03-22T03:39:34.912Z,75.60
2019-03-22T03:42:05.905Z,75.00
2019-03-22T03:44:36.525Z,75.00
2019-03-22T03:47:10.275Z,75.20
2019-03-22T03:49:41.012Z,75.30
2019-03-22T03:52:11.653Z,75.80
2019-03-22T03:54:43.820Z,75.30
2019-03-22T03:57:14.335Z,75.10
2019-03-22T03:59:45.032Z,75.00
2019-03-22T04:02:15.647Z,74.80
2019-03-22T04:04:46.226Z,74.20
2019-03-22T04:07:18.522Z,74.90
2019-03-22T04:09:49.155Z,75.10
2019-03-22T04:12:20.985Z,75.80
2019-03-22T04:14:52.673Z,76.50
2019-03-22T04:17:24.397Z,75.90
2019-03-22T04:19:58.265Z,76.10
2019-03-22T04:22:31.861Z,76.40
2019-03-22T04:25:02.488Z,76.20
2019-03-22T04:27:33.061Z,75.90
2019-03-22T04:30:03.635Z,74.90
2019-03-22T04:32:35.257Z,75.10
2019-03-22T04:35:06.023Z,75.70
2019-03-22T04:37:36.566Z,76.10
2019-03-22T04:40:20.854Z,76.30
2019-03-22T04:42:51.396Z,76.80
2019-03-22T04:45:25.684Z,76.40
2019-03-22T04:48:02.394Z,76.40
2019-03-22T04:50:38.027Z,76.00
2019-03-22T04:53:13.937Z,76.20
2019-03-22T04:55:48.832Z,77.00
2019-03-22T04:58:23.009Z,77.00
2019-03-22T05:00:55.425Z,76.50
2019-03-22T05:03:27.133Z,75.80
2019-03-22T05:06:02.461Z,75.60
2019-03-22T05:08:36.958Z,75.60
2019-03-22T05:11:14.934Z,75.80
2019-03-22T05:13:48.315Z,75.30
2019-03-22T05:16:20.472Z,75.00
2019-03-22T05:18:52.888Z,74.80
2019-03-22T05:21:33.484Z,75.30
2019-03-22T05:24:04.125Z,77.30
2019-03-22T05:26:38.121Z,76.50
2019-03-22T05:29:11.582Z,75.80
2019-03-22T05:32:09.329Z,75.50
2019-03-22T05:34:41.537Z,74.10
2019-03-22T05:37:15.858Z,69.00
2019-03-22T05:39:47.695Z,67.80
2019-03-22T05:42:22.084Z,68.10
2019-03-22T05:44:52.752Z,64.30
2019-03-22T05:47:23.268Z,60.40
2019-03-22T05:49:55.023Z,58.00
2019-03-22T05:52:27.177Z,54.50
2019-03-22T05:54:57.737Z,51.50
2019-03-22T05:57:31.652Z,47.30
2019-03-22T06:00:05.047Z,43.90
2019-03-22T06:02:35.641Z,40.40
2019-03-22T06:05:08.099Z,37.60
2019-03-22T06:07:38.857Z,37.90
2019-03-22T06:10:15.323Z,38.00
2019-03-22T06:12:49.151Z,37.70
2019-03-22T06:15:23.663Z,37.00
2019-03-22T06:17:57.949Z,36.70
2019-03-22T06:20:33.231Z,36.20
2019-03-22T06:23:05.433Z,36.30
2019-03-22T06:25:36.129Z,34.80
2019-03-22T06:28:08.302Z,34.40
2019-03-22T06:30:41.225Z,34.10
2019-03-22T06:33:11.749Z,33.70
2019-03-22T06:35:45.208Z,31.60
2019-03-22T06:38:15.745Z,30.20
2019-03-22T06:40:46.348Z,29.60
2019-03-22T06:43:16.888Z,27.80
2019-03-22T06:45:51.227Z,25.80
2019-03-22T06:48:21.782Z,24.90
2019-03-22T06:50:56.930Z,24.20
2019-03-22T06:53:27.515Z,23.40
2019-03-22T06:55:59.816Z,22.90
2019-03-22T06:58:30.355Z,22.90
2019-03-22T07:01:00.901Z,21.70
2019-03-22T07:03:33.888Z,20.90
2019-03-22T07:06:05.466Z,20.00
2019-03-22T07:08:36.163Z,19.70
2019-03-22T07:11:09.618Z,21.30
2019-03-22T07:13:41.490Z,21.30
2019-03-22T07:16:12.044Z,20.00
2019-03-22T07:18:46.972Z,19.50
2019-03-22T07:21:17.535Z,19.50
2019-03-22T07:23:49.160Z,19.00
2019-03-22T07:26:20.859Z,19.40
2019-03-22T07:28:51.404Z,19.40
2019-03-22T07:31:21.956Z,18.80
2019-03-22T07:33:53.857Z,18.30
2019-03-22T07:36:26.406Z,17.90
2019-03-22T07:38:59.698Z,17.50
2019-03-22T07:41:30.239Z,17.90
2019-03-22T07:44:00.777Z,17.90
2019-03-22T07:46:31.401Z,17.70
2019-03-22T07:49:01.923Z,17.50
2019-03-22T07:51:33.487Z,17.70
2019-03-22T07:54:04.027Z,17.10
2019-03-22T07:56:37.919Z,16.80
2019-03-22T07:59:09.846Z,17.20
2019-03-22T08:01:40.711Z,17.40
2019-03-22T08:04:12.803Z,16.40
2019-03-22T08:06:58.085Z,17.00
2019-03-22T08:09:19.111Z,17.80
2019-03-22T08:11:50.266Z,17.30
2019-03-22T08:14:22.690Z,16.80
2019-03-22T08:16:53.219Z,18.00
2019-03-22T08:19:26.999Z,18.50
2019-03-22T08:21:57.666Z,18.30
2019-03-22T08:24:30.985Z,18.50
2019-03-22T08:27:07.865Z,17.50
2019-03-22T08:29:44.795Z,17.10
2019-03-22T08:32:18.321Z,17.60
2019-03-22T08:34:48.931Z,17.40
2019-03-22T08:37:19.502Z,16.60
2019-03-22T08:39:55.777Z,16.00
2019-03-22T08:42:25.809Z,16.00
2019-03-22T08:44:58.891Z,15.60
2019-03-22T08:47:34.287Z,16.70
2019-03-22T08:50:01.041Z,16.30
2019-03-22T08:52:32.035Z,15.60
2019-03-22T08:55:02.631Z,15.70
2019-03-22T08:57:33.213Z,14.20
2019-03-22T09:00:05.335Z,15.40
2019-03-22T09:02:36.021Z,15.10
2019-03-22T09:05:07.256Z,15.20
2019-03-22T09:07:37.813Z,15.00
2019-03-22T09:10:13.314Z,14.80
2019-03-22T09:12:43.963Z,15.60
2019-03-22T09:15:14.821Z,15.80
2019-03-22T09:17:45.384Z,17.60
2019-03-22T09:20:16.163Z,17.40
2019-03-22T09:22:46.800Z,16.30
2019-03-22T09:25:18.633Z,16.10
2019-03-22T09:27:49.343Z,16.80
2019-03-22T09:30:20.031Z,16.80
2019-03-22T09:32:50.675Z,16.70
2019-03-22T09:35:21.289Z,17.10
2019-03-22T09:37:52.098Z,16.50
2019-03-22T09:40:22.706Z,15.70
2019-03-22T09:42:53.428Z,15.50
2019-03-22T09:45:24.120Z,15.70
2019-03-22T09:47:54.775Z,16.10
2019-03-22T09:50:25.471Z,15.10
2019-03-22T09:52:56.125Z,14.10
2019-03-22T09:55:26.728Z,14.60
2019-03-22T09:57:57.590Z,15.60
2019-03-22T10:00:32.846Z,17.00
2019-03-22T10:03:04.695Z,18.40
2019-03-22T10:05:35.275Z,17.90
2019-03-22T10:08:06.037Z,18.80
2019-03-22T10:10:36.723Z,19.20
2019-03-22T10:13:07.329Z,18.10
2019-03-22T10:15:38.013Z,16.30
2019-03-22T10:18:08.625Z,15.30
2019-03-22T10:20:39.334Z,15.70
2019-03-22T10:23:10.182Z,17.30
2019-03-22T10:25:40.777Z,18.80
2019-03-22T10:28:11.378Z,18.50
2019-03-22T10:30:41.957Z,20.30
2019-03-22T10:33:22.081Z,18.60
2019-03-22T10:35:44.786Z,19.70
2019-03-22T10:38:16.624Z,20.70
2019-03-22T10:40:47.900Z,19.80
2019-03-22T10:43:18.547Z,19.90
2019-03-22T10:45:49.157Z,19.50
2019-03-22T10:48:19.695Z,20.50
2019-03-22T10:50:50.465Z,20.00
2019-03-22T10:53:21.984Z,19.30
2019-03-22T10:55:52.499Z,19.20
2019-03-22T10:58:23.051Z,20.00
2019-03-22T11:00:53.686Z,19.30
2019-03-22T11:03:24.228Z,19.40
2019-03-22T11:05:54.884Z,18.90
2019-03-22T11:08:25.452Z,19.40
2019-03-22T11:10:57.760Z,21.80
2019-03-22T11:13:28.287Z,23.80
2019-03-22T11:16:00.619Z,26.30
2019-03-22T11:18:37.394Z,27.30
2019-03-22T11:21:05.465Z,28.30
2019-03-22T11:23:35.766Z,29.50
2019-03-22T11:26:06.483Z,30.20
2019-03-22T11:28:37.102Z,31.10
2019-03-22T11:31:09.124Z,29.40
2019-03-22T11:33:41.559Z,29.60
2019-03-22T11:36:12.208Z,30.40
2019-03-22T11:38:42.861Z,31.50
2019-03-22T11:41:15.816Z,30.90
2019-03-22T11:43:46.370Z,32.10
2019-03-22T11:46:16.930Z,33.10
2019-03-22T11:48:49.088Z,32.20
2019-03-22T11:51:20.257Z,31.30
2019-03-22T11:53:50.896Z,31.70
2019-03-22T11:56:21.528Z,32.10
2019-03-22T11:58:52.147Z,32.20
2019-03-22T12:01:22.923Z,31.80
2019-03-22T12:03:53.738Z,31.80
2019-03-22T12:06:24.263Z,31.50
2019-03-22T12:08:56.107Z,31.90
2019-03-22T12:11:27.392Z,32.10
2019-03-22T12:13:57.984Z,32.10
2019-03-22T12:16:28.672Z,32.70
2019-03-22T12:18:59.322Z,32.50
2019-03-22T12:21:31.468Z,31.80
2019-03-22T12:24:02.207Z,32.10
2019-03-22T12:26:34.527Z,31.50
2019-03-22T12:29:05.169Z,31.50
2019-03-22T12:31:35.861Z,31.20
2019-03-22T12:34:08.033Z,31.80
2019-03-22T12:36:39.779Z,31.40
2019-03-22T12:39:16.805Z,31.90
2019-03-22T12:41:49.419Z,31.20
2019-03-22T12:44:25.983Z,30.90
2019-03-22T12:46:56.643Z,30.70
2019-03-22T12:49:27.209Z,30.00
2019-03-22T12:51:57.860Z,30.50
2019-03-22T12:54:28.411Z,31.90
2019-03-22T12:57:04.573Z,31.80
2019-03-22T12:59:35.255Z,31.50
2019-03-22T13:02:05.829Z,31.20
2019-03-22T13:04:36.457Z,31.60
2019-03-22T13:07:07.169Z,31.50
2019-03-22T13:09:37.842Z,31.00
2019-03-22T13:12:08.475Z,30.70
2019-03-22T13:14:43.138Z,30.50
2019-03-22T13:17:16.830Z,30.90
2019-03-22T13:19:47.367Z,30.30
2019-03-22T13:22:17.994Z,30.10
2019-03-22T13:24:50.192Z,30.90
2019-03-22T13:27:23.978Z,31.50
2019-03-22T13:29:58.935Z,31.30
2019-03-22T13:32:29.595Z,31.60
2019-03-22T13:35:00.320Z,31.90
2019-03-22T13:37:31.052Z,32.20
2019-03-22T13:40:01.612Z,32.10
2019-03-22T13:42:33.424Z,32.10
2019-03-22T13:45:04.628Z,32.40
2019-03-22T13:47:35.131Z,32.20
2019-03-22T13:50:07.472Z,32.00
2019-03-22T13:52:38.076Z,32.50
2019-03-22T13:55:10.184Z,32.30
2019-03-22T13:57:41.110Z,32.20
2019-03-22T14:00:12.884Z,32.20
2019-03-22T14:02:44.885Z,32.50
2019-03-22T14:05:15.899Z,32.30
2019-03-22T14:07:49.356Z,32.80
2019-03-22T14:10:38.751Z,32.60
2019-03-22T14:13:09.365Z,32.00
2019-03-22T14:15:42.547Z,31.80
2019-03-22T14:18:13.160Z,31.20
2019-03-22T14:20:43.719Z,31.40
2019-03-22T14:23:14.384Z,31.80
2019-03-22T14:25:44.994Z,31.40
2019-03-22T14:28:17.309Z,31.20
2019-03-22T14:30:49.280Z,31.90
2019-03-22T14:33:23.844Z,32.20
2019-03-22T14:35:54.545Z,32.20
2019-03-22T14:38:25.165Z,32.30
2019-03-22T14:40:55.861Z,32.60
2019-03-22T14:43:28.571Z,32.80
2019-03-22T14:46:00.950Z,32.60
2019-03-22T14:48:31.559Z,33.10
2019-03-22T14:51:02.230Z,32.90
2019-03-22T14:53:34.963Z,33.00
2019-03-22T14:56:05.659Z,32.90
2019-03-22T14:58:36.261Z,32.60
2019-03-22T15:01:06.898Z,32.50
2019-03-22T15:03:37.567Z,32.60
2019-03-22T15:06:08.119Z,32.80
2019-03-22T15:08:38.739Z,33.10
2019-03-22T15:11:09.407Z,33.20
2019-03-22T15:13:58.980Z,33.30
2019-03-22T15:16:47.428Z,33.40
2019-03-22T15:19:42.666Z,33.60
2019-03-22T15:22:23.447Z,34.00
2019-03-22T15:25:13.455Z,33.90
2019-03-22T15:28:12.199Z,33.90
2019-03-22T15:31:10.580Z,34.10
2019-03-22T15:34:00.155Z,34.50
2019-03-22T15:36:56.680Z,34.60
2019-03-22T15:39:44.923Z,35.00
2019-03-22T15:42:15.625Z,35.00
2019-03-22T15:44:46.161Z,35.60
2019-03-22T15:47:16.702Z,35.80
2019-03-22T15:49:47.344Z,36.10
2019-03-22T15:52:17.962Z,36.00
2019-03-22T15:54:48.534Z,36.40
2019-03-22T15:57:19.067Z,36.70
2019-03-22T15:59:51.090Z,37.00
2019-03-22T16:02:21.704Z,37.20
2019-03-22T16:04:52.344Z,37.50
2019-03-22T16:07:23.044Z,37.80
2019-03-22T16:09:53.642Z,38.40
2019-03-22T16:12:29.076Z,38.90
2019-03-22T16:14:56.702Z,39.30
2019-03-22T16:17:29.135Z,40.30
2019-03-22T16:19:59.836Z,41.10
2019-03-22T16:22:30.484Z,42.40
2019-03-22T16:25:01.124Z,43.60
2019-03-22T16:27:33.584Z,44.30
2019-03-22T16:30:05.081Z,44.70
2019-03-22T16:32:35.764Z,45.60
2019-03-22T16:35:10.778Z,46.70
2019-03-22T16:37:47.171Z,47.20
2019-03-22T16:40:24.347Z,51.20
2019-03-22T16:42:55.763Z,53.90
2019-03-22T16:45:37.836Z,55.10
2019-03-22T16:48:12.351Z,54.50
2019-03-22T16:50:43.413Z,53.60
2019-03-22T16:53:14.076Z,53.40
2019-03-22T16:55:50.023Z,53.00
2019-03-22T16:58:20.745Z,53.00
2019-03-22T17:00:51.417Z,53.90
2019-03-22T17:03:22.123Z,54.80
2019-03-22T17:05:52.746Z,55.80
2019-03-22T17:08:23.352Z,56.60
2019-03-22T17:10:53.920Z,56.90
2019-03-22T17:13:24.673Z,57.30
2019-03-22T17:15:55.307Z,56.80
2019-03-22T17:18:25.973Z,57.60
2019-03-22T17:20:57.802Z,57.60
2019-03-22T17:23:28.405Z,58.50
2019-03-22T17:25:59.028Z,58.70
2019-03-22T17:28:29.589Z,58.80
2019-03-22T17:31:00.219Z,59.10
2019-03-22T17:33:30.843Z,59.50
2019-03-22T17:36:01.380Z,59.70
2019-03-22T17:38:32.000Z,60.20
2019-03-22T17:41:02.705Z,60.30
2019-03-22T17:43:33.351Z,60.20
2019-03-22T17:46:03.983Z,60.60
2019-03-22T17:48:34.543Z,59.80
2019-03-22T17:51:05.287Z,59.60
2019-03-22T17:53:35.961Z,60.30
2019-03-22T17:56:09.417Z,61.20
2019-03-22T17:58:41.812Z,62.00
2019-03-22T18:01:12.552Z,62.40
2019-03-22T18:03:43.164Z,62.60
2019-03-22T18:06:13.708Z,62.90
2019-03-22T18:08:45.727Z,63.00
2019-03-22T18:11:16.319Z,62.90
2019-03-22T18:13:48.513Z,63.40
2019-03-22T18:16:20.401Z,63.10
2019-03-22T18:18:51.131Z,62.90
2019-03-22T18:21:22.043Z,62.50
2019-03-22T18:23:54.280Z,62.10
2019-03-22T18:26:25.795Z,61.90
2019-03-22T18:29:01.340Z,61.70
2019-03-22T18:31:31.947Z,61.80
2019-03-22T18:34:02.577Z,62.00
2019-03-22T18:36:36.251Z,63.30
2019-03-22T18:39:10.900Z,63.40
2019-03-22T18:41:41.445Z,63.70
2019-03-22T18:44:12.074Z,63.50
2019-03-22T18:46:43.894Z,63.30
2019-03-22T18:49:15.536Z,63.40
2019-03-22T18:51:46.166Z,63.20
2019-03-22T18:54:16.720Z,63.30
2019-03-22T18:56:47.462Z,63.10
2019-03-22T18:59:19.969Z,63.20
2019-03-22T19:01:53.094Z,63.40
2019-03-22T19:04:23.091Z,64.10
2019-03-22T19:06:58.633Z,63.80
2019-03-22T19:09:29.274Z,65.00
2019-03-22T19:12:01.253Z,65.10
2019-03-22T19:14:32.033Z,65.20
2019-03-22T19:17:02.550Z,65.60
2019-03-22T19:19:36.360Z,66.80
2019-03-22T19:22:07.370Z,66.20
2019-03-22T19:24:38.038Z,65.80
2019-03-22T19:27:08.706Z,66.00
2019-03-22T19:29:40.524Z,65.70
2019-03-22T19:32:13.822Z,65.80
2019-03-22T19:34:54.281Z,65.80
2019-03-22T19:37:20.597Z,66.20
2019-03-22T19:39:51.267Z,66.90
2019-03-22T19:42:21.892Z,65.60
2019-03-22T19:44:54.111Z,65.80
2019-03-22T19:47:24.761Z,65.90
2019-03-22T19:49:55.446Z,66.40
2019-03-22T19:52:26.625Z,66.20
2019-03-22T19:54:57.367Z,66.60
2019-03-22T19:57:28.046Z,66.40
2019-03-22T20:00:00.343Z,66.50
2019-03-22T20:02:31.097Z,66.40
2019-03-22T20:05:04.927Z,67.10
2019-03-22T20:07:35.921Z,67.50
2019-03-22T20:10:10.533Z,67.70
2019-03-22T20:12:41.639Z,67.70
2019-03-22T20:15:13.893Z,68.20
2019-03-22T20:17:44.471Z,68.20
2019-03-22T20:20:15.459Z,69.20
2019-03-22T20:22:49.859Z,69.10
2019-03-22T20:25:20.148Z,69.70
2019-03-22T20:27:55.146Z,69.30
2019-03-22T20:30:25.861Z,69.20
2019-03-22T20:32:56.427Z,69.20
2019-03-22T20:35:27.129Z,69.30
2019-03-22T20:37:57.773Z,69.20
2019-03-22T20:40:31.638Z,69.30
2019-03-22T20:43:02.285Z,68.90
2019-03-22T20:45:33.923Z,69.60
2019-03-22T20:48:06.819Z,69.20
2019-03-22T20:50:39.146Z,69.10
2019-03-22T20:53:09.810Z,68.80
2019-03-22T20:55:40.436Z,69.20
2019-03-22T20:58:11.372Z,69.50
2019-03-22T21:00:42.112Z,69.40
2019-03-22T21:03:12.762Z,69.40
2019-03-22T21:05:44.981Z,69.50
2019-03-22T21:08:17.201Z,69.60
2019-03-22T21:10:51.849Z,70.30
2019-03-22T21:13:24.212Z,70.10
2019-03-22T21:15:54.816Z,70.00
2019-03-22T21:18:25.941Z,70.40
2019-03-22T21:20:58.790Z,70.40
2019-03-22T21:23:36.235Z,70.50
2019-03-22T21:26:02.111Z,70.90
2019-03-22T21:28:33.020Z,71.30
2019-03-22T21:31:03.738Z,71.40
2019-03-22T21:33:34.353Z,70.80
2019-03-22T21:36:04.907Z,70.80
2019-03-22T21:38:35.514Z,70.60
2019-03-22T21:41:06.130Z,71.60
2019-03-22T21:43:38.482Z,71.70
2019-03-22T21:46:09.117Z,71.50
2019-03-22T21:48:39.807Z,71.80
2019-03-22T21:51:10.433Z,72.10
2019-03-22T21:53:42.090Z,72.50
2019-03-22T21:56:20.542Z,72.80
2019-03-22T21:58:54.737Z,72.70
2019-03-22T22:01:28.817Z,72.40
2019-03-22T22:04:02.238Z,72.50
2019-03-22T22:06:33.797Z,72.60
2019-03-22T22:09:08.011Z,72.70
2019-03-22T22:11:38.718Z,72.70
2019-03-22T22:14:09.423Z,72.80
2019-03-22T22:16:41.286Z,72.70
2019-03-22T22:19:14.916Z,73.60
2019-03-22T22:21:47.426Z,74.40
2019-03-22T22:24:17.733Z,74.80
2019-03-22T22:26:49.635Z,74.70
2019-03-22T22:29:23.203Z,74.40
2019-03-22T22:31:56.871Z,74.20
2019-03-22T22:34:30.534Z,74.70
2019-03-22T22:37:01.581Z,75.70
2019-03-22T22:39:32.204Z,75.70
2019-03-22T22:42:04.767Z,75.70
2019-03-22T22:44:35.432Z,76.20
2019-03-22T22:47:06.122Z,76.00
2019-03-22T22:49:37.844Z,76.20
2019-03-22T22:52:10.548Z,75.50
2019-03-22T22:54:41.150Z,75.20
2019-03-22T22:57:12.998Z,75.40
2019-03-22T22:59:43.686Z,75.00
2019-03-22T23:02:16.152Z,75.70
2019-03-22T23:04:46.764Z,75.80
2019-03-22T23:07:17.610Z,76.20
2019-03-22T23:09:49.273Z,76.00
2019-03-22T23:12:20.364Z,75.80
2019-03-22T23:14:55.684Z,75.70
2019-03-22T23:17:26.330Z,75.80
2019-03-22T23:19:59.463Z,76.30
2019-03-22T23:22:30.112Z,76.50
2019-03-22T23:25:00.719Z,76.00
2019-03-22T23:27:31.412Z,75.80
2019-03-22T23:30:03.049Z,76.50
2019-03-22T23:32:33.628Z,75.70
2019-03-22T23:35:06.379Z,75.40
2019-03-22T23:37:39.914Z,75.80
2019-03-22T23:40:15.969Z,75.70
2019-03-22T23:42:47.778Z,75.70
2019-03-22T23:45:18.765Z,75.40
2019-03-22T23:47:49.386Z,75.40
2019-03-22T23:50:22.438Z,75.60
2019-03-22T23:52:54.064Z,75.40
2019-03-22T23:55:24.875Z,75.20
2019-03-22T23:57:57.271Z,75.00
